sensor_id;sensor_type;location;lat;lon;timestamp;P1;durP1;ratioP1;P2;durP2;ratioP2
54464;SDS011;40374;49.480;20.016;2023-07-20T10:35:53;7.63;;;2.33;;
54464;SDS011;40374;49.480;20.016;2023-07-20T10:44:50;6.60;;;1.80;;
54464;SDS011;40374;49.480;20.016;2023-07-20T11:26:44;5.57;;;1.67;;
54464;SDS011;40374;49.480;20.016;2023-07-20T11:29:15;5.97;;;2.22;;
54464;SDS011;40374;49.480;20.016;2023-07-20T11:53:20;8.10;;;2.25;;
54464;SDS011;40374;49.480;20.016;2023-07-20T11:57:36;3.90;;;1.77;;
54464;SDS011;40374;49.480;20.016;2023-07-20T12:00:05;6.53;;;1.80;;
54464;SDS011;40374;49.480;20.016;2023-07-20T12:02:38;1.83;;;1.50;;
54464;SDS011;40374;49.480;20.016;2023-07-20T12:05:06;7.25;;;1.50;;
54464;SDS011;40374;49.480;20.016;2023-07-20T12:07:35;1.92;;;1.13;;
54464;SDS011;40374;49.480;20.016;2023-07-20T12:10:08;3.08;;;1.48;;
54464;SDS011;40374;49.480;20.016;2023-07-20T12:12:39;2.70;;;1.83;;
54464;SDS011;40374;49.480;20.016;2023-07-20T12:15:22;2.50;;;1.52;;
54464;SDS011;40374;49.480;20.016;2023-07-20T12:17:58;2.30;;;1.40;;
54464;SDS011;40374;49.480;20.016;2023-07-20T12:23:34;5.85;;;1.85;;
54464;SDS011;40374;49.480;20.016;2023-07-20T14:30:57;6.30;;;1.38;;
54464;SDS011;40374;49.480;20.016;2023-07-20T14:37:01;6.35;;;1.13;;
54464;SDS011;40374;49.480;20.016;2023-07-20T14:47:53;1.80;;;1.52;;
54464;SDS011;40374;49.480;20.016;2023-07-20T15:44:04;2.53;;;2.13;;
54464;SDS011;40374;49.480;20.016;2023-07-20T15:49:08;4.07;;;1.67;;
54464;SDS011;40374;49.480;20.016;2023-07-20T15:51:36;6.78;;;1.92;;
54464;SDS011;40374;49.480;20.016;2023-07-20T15:54:05;6.70;;;1.77;;
54464;SDS011;40374;49.480;20.016;2023-07-20T15:56:34;2.67;;;1.70;;
54464;SDS011;40374;49.480;20.016;2023-07-20T15:59:02;3.33;;;2.03;;
54464;SDS011;40374;49.480;20.016;2023-07-20T16:01:29;3.42;;;2.00;;
54464;SDS011;40374;49.480;20.016;2023-07-20T16:03:58;2.58;;;1.98;;
54464;SDS011;40374;49.480;20.016;2023-07-20T16:06:26;4.97;;;2.17;;
54464;SDS011;40374;49.480;20.016;2023-07-20T16:08:54;7.15;;;1.77;;
54464;SDS011;40374;49.480;20.016;2023-07-20T16:11:22;2.50;;;1.75;;
54464;SDS011;40374;49.480;20.016;2023-07-20T16:13:53;5.40;;;2.28;;
54464;SDS011;40374;49.480;20.016;2023-07-20T16:16:20;5.80;;;2.20;;
54464;SDS011;40374;49.480;20.016;2023-07-20T16:18:49;7.25;;;2.30;;
54464;SDS011;40374;49.480;20.016;2023-07-20T16:21:17;3.20;;;1.90;;
54464;SDS011;40374;49.480;20.016;2023-07-20T16:23:45;6.10;;;2.05;;
54464;SDS011;40374;49.480;20.016;2023-07-20T16:26:12;7.95;;;2.45;;
54464;SDS011;40374;49.480;20.016;2023-07-20T16:28:40;5.75;;;2.17;;
54464;SDS011;40374;49.480;20.016;2023-07-20T16:31:08;15.95;;;3.20;;
54464;SDS011;40374;49.480;20.016;2023-07-20T16:33:37;4.57;;;2.88;;
54464;SDS011;40374;49.480;20.016;2023-07-20T16:36:12;6.35;;;2.20;;
54464;SDS011;40374;49.480;20.016;2023-07-20T16:38:40;4.57;;;2.25;;
54464;SDS011;40374;49.480;20.016;2023-07-20T16:41:11;1.75;;;1.65;;
54464;SDS011;40374;49.480;20.016;2023-07-20T16:43:39;7.13;;;2.17;;
54464;SDS011;40374;49.480;20.016;2023-07-20T16:46:26;6.63;;;2.08;;
54464;SDS011;40374;49.480;20.016;2023-07-20T16:48:57;4.30;;;2.10;;
54464;SDS011;40374;49.480;20.016;2023-07-20T16:51:26;3.92;;;2.53;;
54464;SDS011;40374;49.480;20.016;2023-07-20T16:53:56;4.53;;;2.08;;
54464;SDS011;40374;49.480;20.016;2023-07-20T16:56:23;5.07;;;2.35;;
54464;SDS011;40374;49.480;20.016;2023-07-20T16:58:50;2.95;;;1.90;;
54464;SDS011;40374;49.480;20.016;2023-07-20T17:01:18;3.08;;;2.33;;
54464;SDS011;40374;49.480;20.016;2023-07-20T17:03:46;6.35;;;1.98;;
54464;SDS011;40374;49.480;20.016;2023-07-20T17:06:14;2.35;;;1.83;;
54464;SDS011;40374;49.480;20.016;2023-07-20T17:08:42;1.75;;;1.55;;
54464;SDS011;40374;49.480;20.016;2023-07-20T17:11:09;3.20;;;1.83;;
54464;SDS011;40374;49.480;20.016;2023-07-20T17:13:37;3.38;;;1.77;;
54464;SDS011;40374;49.480;20.016;2023-07-20T17:16:05;4.10;;;1.95;;
54464;SDS011;40374;49.480;20.016;2023-07-20T17:18:33;5.40;;;2.13;;
54464;SDS011;40374;49.480;20.016;2023-07-20T17:21:01;2.53;;;2.33;;
54464;SDS011;40374;49.480;20.016;2023-07-20T17:23:29;4.25;;;1.90;;
54464;SDS011;40374;49.480;20.016;2023-07-20T17:26:17;4.03;;;2.20;;
54464;SDS011;40374;49.480;20.016;2023-07-20T17:28:48;4.57;;;2.10;;
54464;SDS011;40374;49.480;20.016;2023-07-20T17:31:15;3.17;;;1.98;;
54464;SDS011;40374;49.480;20.016;2023-07-20T17:33:45;3.97;;;2.33;;
54464;SDS011;40374;49.480;20.016;2023-07-20T17:36:12;3.63;;;1.80;;
54464;SDS011;40374;49.480;20.016;2023-07-20T17:39:00;3.22;;;2.38;;
54464;SDS011;40374;49.480;20.016;2023-07-20T17:41:28;4.20;;;2.78;;
54464;SDS011;40374;49.480;20.016;2023-07-20T17:43:55;3.63;;;2.50;;
54464;SDS011;40374;49.480;20.016;2023-07-20T17:46:24;5.10;;;3.17;;
54464;SDS011;40374;49.480;20.016;2023-07-20T17:48:54;6.40;;;2.53;;
54464;SDS011;40374;49.480;20.016;2023-07-20T17:51:21;6.60;;;2.83;;
54464;SDS011;40374;49.480;20.016;2023-07-20T17:53:50;3.88;;;2.33;;
54464;SDS011;40374;49.480;20.016;2023-07-20T17:56:17;7.28;;;2.60;;
54464;SDS011;40374;49.480;20.016;2023-07-20T17:58:45;5.65;;;2.08;;
54464;SDS011;40374;49.480;20.016;2023-07-20T18:01:12;3.67;;;2.30;;
54464;SDS011;40374;49.480;20.016;2023-07-20T18:03:40;3.67;;;2.20;;
54464;SDS011;40374;49.480;20.016;2023-07-20T18:06:07;1.95;;;1.80;;
54464;SDS011;40374;49.480;20.016;2023-07-20T18:08:35;3.30;;;2.08;;
54464;SDS011;40374;49.480;20.016;2023-07-20T18:11:03;4.75;;;2.90;;
54464;SDS011;40374;49.480;20.016;2023-07-20T18:13:32;7.35;;;2.10;;
54464;SDS011;40374;49.480;20.016;2023-07-20T18:16:00;3.47;;;2.25;;
54464;SDS011;40374;49.480;20.016;2023-07-20T18:18:28;4.20;;;2.30;;
54464;SDS011;40374;49.480;20.016;2023-07-20T18:20:55;6.28;;;2.40;;
54464;SDS011;40374;49.480;20.016;2023-07-20T18:23:23;5.13;;;2.40;;
54464;SDS011;40374;49.480;20.016;2023-07-20T18:25:51;10.18;;;2.67;;
54464;SDS011;40374;49.480;20.016;2023-07-20T18:28:19;9.88;;;3.05;;
54464;SDS011;40374;49.480;20.016;2023-07-20T18:30:46;12.63;;;2.75;;
54464;SDS011;40374;49.480;20.016;2023-07-20T18:33:15;5.22;;;2.60;;
54464;SDS011;40374;49.480;20.016;2023-07-20T18:35:43;6.68;;;2.40;;
54464;SDS011;40374;49.480;20.016;2023-07-20T18:38:11;4.18;;;2.45;;
54464;SDS011;40374;49.480;20.016;2023-07-20T18:40:40;8.30;;;2.97;;
54464;SDS011;40374;49.480;20.016;2023-07-20T18:43:08;7.60;;;2.60;;
54464;SDS011;40374;49.480;20.016;2023-07-20T18:45:35;10.93;;;2.63;;
54464;SDS011;40374;49.480;20.016;2023-07-20T18:48:03;4.78;;;2.50;;
54464;SDS011;40374;49.480;20.016;2023-07-20T18:50:30;6.70;;;2.60;;
54464;SDS011;40374;49.480;20.016;2023-07-20T18:52:59;4.15;;;2.65;;
54464;SDS011;40374;49.480;20.016;2023-07-20T18:55:27;5.38;;;3.03;;
54464;SDS011;40374;49.480;20.016;2023-07-20T18:57:55;5.57;;;3.38;;
54464;SDS011;40374;49.480;20.016;2023-07-20T19:00:22;5.63;;;2.88;;
54464;SDS011;40374;49.480;20.016;2023-07-20T19:02:50;6.13;;;2.95;;
54464;SDS011;40374;49.480;20.016;2023-07-20T19:05:18;20.13;;;6.28;;
54464;SDS011;40374;49.480;20.016;2023-07-20T19:07:46;15.60;;;4.55;;
54464;SDS011;40374;49.480;20.016;2023-07-20T19:10:14;8.80;;;2.67;;
54464;SDS011;40374;49.480;20.016;2023-07-20T19:12:42;6.60;;;2.72;;
54464;SDS011;40374;49.480;20.016;2023-07-20T19:15:09;6.05;;;3.65;;
54464;SDS011;40374;49.480;20.016;2023-07-20T19:17:38;9.20;;;2.95;;
54464;SDS011;40374;49.480;20.016;2023-07-20T19:20:06;4.28;;;3.05;;
54464;SDS011;40374;49.480;20.016;2023-07-20T19:22:34;11.27;;;3.42;;
54464;SDS011;40374;49.480;20.016;2023-07-20T19:25:02;8.07;;;3.58;;
54464;SDS011;40374;49.480;20.016;2023-07-20T19:27:32;6.13;;;3.47;;
54464;SDS011;40374;49.480;20.016;2023-07-20T19:30:00;5.05;;;3.28;;
54464;SDS011;40374;49.480;20.016;2023-07-20T19:32:30;6.78;;;3.17;;
54464;SDS011;40374;49.480;20.016;2023-07-20T19:34:58;5.85;;;2.97;;
54464;SDS011;40374;49.480;20.016;2023-07-20T19:37:28;5.60;;;3.13;;
54464;SDS011;40374;49.480;20.016;2023-07-20T19:39:56;4.15;;;3.13;;
54464;SDS011;40374;49.480;20.016;2023-07-20T19:42:23;7.38;;;3.42;;
54464;SDS011;40374;49.480;20.016;2023-07-20T19:44:51;12.02;;;4.95;;
54464;SDS011;40374;49.480;20.016;2023-07-20T19:47:18;11.15;;;4.57;;
54464;SDS011;40374;49.480;20.016;2023-07-20T19:49:46;9.30;;;5.00;;
54464;SDS011;40374;49.480;20.016;2023-07-20T19:52:14;14.55;;;6.68;;
54464;SDS011;40374;49.480;20.016;2023-07-20T19:54:42;23.50;;;13.38;;
54464;SDS011;40374;49.480;20.016;2023-07-20T19:57:13;18.90;;;11.25;;
54464;SDS011;40374;49.480;20.016;2023-07-20T19:59:46;37.67;;;23.55;;
54464;SDS011;40374;49.480;20.016;2023-07-20T20:02:14;47.63;;;25.63;;
54464;SDS011;40374;49.480;20.016;2023-07-20T20:04:41;50.78;;;24.90;;
54464;SDS011;40374;49.480;20.016;2023-07-20T20:07:15;43.90;;;24.17;;
54464;SDS011;40374;49.480;20.016;2023-07-20T20:09:43;48.70;;;26.05;;
54464;SDS011;40374;49.480;20.016;2023-07-20T20:12:10;40.05;;;24.25;;
54464;SDS011;40374;49.480;20.016;2023-07-20T20:14:39;47.45;;;25.30;;
54464;SDS011;40374;49.480;20.016;2023-07-20T20:17:07;46.47;;;24.90;;
54464;SDS011;40374;49.480;20.016;2023-07-20T20:19:35;39.83;;;24.67;;
54464;SDS011;40374;49.480;20.016;2023-07-20T20:22:03;48.15;;;25.42;;
54464;SDS011;40374;49.480;20.016;2023-07-20T20:24:31;43.63;;;23.83;;
54464;SDS011;40374;49.480;20.016;2023-07-20T20:26:59;42.97;;;23.40;;
54464;SDS011;40374;49.480;20.016;2023-07-20T20:29:26;38.80;;;22.05;;
54464;SDS011;40374;49.480;20.016;2023-07-20T20:31:55;18.83;;;10.77;;
54464;SDS011;40374;49.480;20.016;2023-07-20T20:34:23;18.73;;;9.07;;
54464;SDS011;40374;49.480;20.016;2023-07-20T20:36:50;19.70;;;9.95;;
54464;SDS011;40374;49.480;20.016;2023-07-20T20:39:18;21.00;;;10.35;;
54464;SDS011;40374;49.480;20.016;2023-07-20T20:41:45;21.20;;;10.88;;
54464;SDS011;40374;49.480;20.016;2023-07-20T20:44:14;23.55;;;11.30;;
54464;SDS011;40374;49.480;20.016;2023-07-20T20:46:45;25.00;;;12.07;;
54464;SDS011;40374;49.480;20.016;2023-07-20T20:49:12;29.58;;;13.32;;
54464;SDS011;40374;49.480;20.016;2023-07-20T20:51:41;28.58;;;13.93;;
54464;SDS011;40374;49.480;20.016;2023-07-20T20:55:07;27.27;;;16.15;;
54464;SDS011;40374;49.480;20.016;2023-07-20T20:58:33;33.70;;;15.35;;
54464;SDS011;40374;49.480;20.016;2023-07-20T21:02:04;36.55;;;16.13;;
54464;SDS011;40374;49.480;20.016;2023-07-20T21:05:33;26.10;;;14.13;;
54464;SDS011;40374;49.480;20.016;2023-07-20T21:08:59;24.23;;;12.63;;
54464;SDS011;40374;49.480;20.016;2023-07-20T21:12:25;23.80;;;12.23;;
54464;SDS011;40374;49.480;20.016;2023-07-20T21:15:51;22.00;;;10.32;;
54464;SDS011;40374;49.480;20.016;2023-07-20T21:19:18;14.57;;;8.85;;
54464;SDS011;40374;49.480;20.016;2023-07-20T21:22:44;14.90;;;8.32;;
54464;SDS011;40374;49.480;20.016;2023-07-20T21:26:10;32.65;;;10.48;;
54464;SDS011;40374;49.480;20.016;2023-07-20T21:29:36;27.42;;;11.02;;
54464;SDS011;40374;49.480;20.016;2023-07-20T21:33:02;18.60;;;10.27;;
54464;SDS011;40374;49.480;20.016;2023-07-20T21:36:32;17.05;;;10.82;;
54464;SDS011;40374;49.480;20.016;2023-07-20T21:39:58;16.65;;;9.82;;
54464;SDS011;40374;49.480;20.016;2023-07-20T21:43:24;17.45;;;10.00;;
54464;SDS011;40374;49.480;20.016;2023-07-20T21:46:50;14.68;;;7.85;;
54464;SDS011;40374;49.480;20.016;2023-07-20T21:50:16;10.50;;;7.13;;
54464;SDS011;40374;49.480;20.016;2023-07-20T21:53:44;11.52;;;7.30;;
54464;SDS011;40374;49.480;20.016;2023-07-20T21:57:10;13.95;;;9.45;;
54464;SDS011;40374;49.480;20.016;2023-07-20T22:00:37;14.15;;;9.50;;
54464;SDS011;40374;49.480;20.016;2023-07-20T22:04:15;25.83;;;10.85;;
54464;SDS011;40374;49.480;20.016;2023-07-20T22:07:42;14.93;;;9.68;;
54464;SDS011;40374;49.480;20.016;2023-07-20T22:10:16;19.85;;;10.23;;
54464;SDS011;40374;49.480;20.016;2023-07-20T22:12:44;18.27;;;10.55;;
54464;SDS011;40374;49.480;20.016;2023-07-20T22:15:35;22.67;;;9.85;;
54464;SDS011;40374;49.480;20.016;2023-07-20T22:19:01;16.65;;;9.48;;
54464;SDS011;40374;49.480;20.016;2023-07-20T22:22:27;14.27;;;8.77;;
54464;SDS011;40374;49.480;20.016;2023-07-20T22:25:53;18.73;;;9.18;;
54464;SDS011;40374;49.480;20.016;2023-07-20T22:29:19;17.25;;;9.75;;
54464;SDS011;40374;49.480;20.016;2023-07-20T22:31:47;15.00;;;9.50;;
54464;SDS011;40374;49.480;20.016;2023-07-20T22:34:15;14.27;;;7.85;;
54464;SDS011;40374;49.480;20.016;2023-07-20T22:37:36;10.95;;;7.43;;
54464;SDS011;40374;49.480;20.016;2023-07-20T22:40:05;16.70;;;7.72;;
54464;SDS011;40374;49.480;20.016;2023-07-20T22:42:36;11.10;;;7.35;;
54464;SDS011;40374;49.480;20.016;2023-07-20T22:47:39;13.57;;;7.43;;
54464;SDS011;40374;49.480;20.016;2023-07-20T22:50:07;14.52;;;7.78;;
54464;SDS011;40374;49.480;20.016;2023-07-20T22:52:35;16.23;;;8.73;;
54464;SDS011;40374;49.480;20.016;2023-07-20T22:55:03;16.67;;;9.63;;
54464;SDS011;40374;49.480;20.016;2023-07-20T22:57:32;18.92;;;9.70;;
54464;SDS011;40374;49.480;20.016;2023-07-20T23:00:01;14.20;;;8.88;;
54464;SDS011;40374;49.480;20.016;2023-07-20T23:03:28;15.68;;;9.93;;
54464;SDS011;40374;49.480;20.016;2023-07-20T23:06:55;15.95;;;8.13;;
54464;SDS011;40374;49.480;20.016;2023-07-20T23:10:24;11.07;;;7.38;;
54464;SDS011;40374;49.480;20.016;2023-07-20T23:13:50;12.32;;;6.65;;
54464;SDS011;40374;49.480;20.016;2023-07-20T23:17:16;9.60;;;5.18;;
54464;SDS011;40374;49.480;20.016;2023-07-20T23:20:42;8.93;;;5.47;;
54464;SDS011;40374;49.480;20.016;2023-07-20T23:24:03;16.27;;;8.05;;
54464;SDS011;40374;49.480;20.016;2023-07-20T23:27:29;12.82;;;7.45;;
54464;SDS011;40374;49.480;20.016;2023-07-20T23:30:55;11.07;;;8.40;;
54464;SDS011;40374;49.480;20.016;2023-07-20T23:33:23;12.35;;;8.68;;
54464;SDS011;40374;49.480;20.016;2023-07-20T23:36:28;13.85;;;8.85;;
54464;SDS011;40374;49.480;20.016;2023-07-20T23:39:46;15.18;;;8.00;;
54464;SDS011;40374;49.480;20.016;2023-07-20T23:43:12;10.15;;;7.35;;
54464;SDS011;40374;49.480;20.016;2023-07-20T23:46:38;20.17;;;7.93;;
54464;SDS011;40374;49.480;20.016;2023-07-20T23:50:05;14.60;;;8.98;;
54464;SDS011;40374;49.480;20.016;2023-07-20T23:53:32;15.55;;;8.18;;
54464;SDS011;40374;49.480;20.016;2023-07-20T23:56:58;11.10;;;6.18;;
